San Luis Valley Regional Bergman Field Alamosa US
ICAO: KALS
IATA: ALS
Category: Medium
Scheduled Services: No

Elevation: 7539 ft
TransAlt. 18000 ft.

Airport Communications:
ASOS:135.175
DENVER CNTR:128.375
DENVER RDO:122.15
CTAF/UNICOM:122.8

KALS Zoom In..

Runways:

(A) RW 02 length 8519 ft width 100 ft
ILS 111.90 / hdg 23

(B) RW 20 length 8519 ft width 100 ft
---- / hdg 203

Location; KALS
Day. 13 / Time. 12.52 Zulu
* Altimeter: 30.28
* Temperature: 14° c. 57.2°f.
* Wind from: 240° Speed 05 kn.
Dewpoint: 05° c.
Visibility: 10 Statute Miles.
Clouds: Clear (automated report).

KALS 131252Z AUTO 24005KT 10SM CLR 14/05 A3028 RMK AO2 SLP148 T01390050

Going to: --> -->


Wind From 240°
Speed 05 kn.

 
 
jpsmedia worldairports.se 2020   terms of use